Time;durP1;ratioP1;P1;durP2;ratioP2;P2;SDS_P1;SDS_P2;PMS_P1;PMS_P2;Temp;Humidity;BMP_temperature;BMP_pressure;BME280_temperature;BME280_humidity;BME280_pressure;Samples;Min_cycle;Max_cycle;Signal;HPM_P1;HPM_P2
2023/03/09 00:01:29;;;;;;;4.55;1.67;;;;;;;;;;7356820;19;20041;-75
2023/03/09 00:03:55;;;;;;;4.57;1.45;;;;;;;;;;7365194;19;20014;-74
2023/03/09 00:06:20;;;;;;;5.60;1.60;;;;;;;;;;7360601;19;20025;-75
2023/03/09 00:08:46;;;;;;;3.90;1.38;;;;;;;;;;7354576;19;20472;-75
2023/03/09 00:11:12;;;;;;;5.45;1.63;;;;;;;;;;7361231;19;20006;-74
2023/03/09 00:13:37;;;;;;;6.53;1.52;;;;;;;;;;7340824;19;20128;-74
2023/03/09 00:16:10;;;;;;;4.75;1.80;;;;;;;;;;7364134;19;20064;-74
2023/03/09 00:18:36;;;;;;;4.25;1.60;;;;;;;;;;7363123;19;20334;-74
2023/03/09 00:21:02;;;;;;;12.05;2.08;;;;;;;;;;7360790;19;20563;-76
2023/03/09 00:23:28;;;;;;;4.30;1.50;;;;;;;;;;7357167;19;20026;-74
2023/03/09 00:25:53;;;;;;;9.65;2.13;;;;;;;;;;7367443;19;20011;-74
2023/03/09 00:28:18;;;;;;;5.30;1.73;;;;;;;;;;7364009;19;20100;-75
2023/03/09 00:30:43;;;;;;;4.40;0.93;;;;;;;;;;7367906;19;20282;-75
2023/03/09 00:33:08;;;;;;;5.53;1.70;;;;;;;;;;7360743;19;20295;-73
2023/03/09 00:35:37;;;;;;;6.10;1.10;;;;;;;;;;7364293;19;20011;-76
2023/03/09 00:38:02;;;;;;;3.13;1.20;;;;;;;;;;7362023;19;20645;-77
2023/03/09 00:40:27;;;;;;;3.65;1.00;;;;;;;;;;7365171;19;20031;-77
2023/03/09 00:42:52;;;;;;;4.53;1.00;;;;;;;;;;7369449;19;20082;-75
2023/03/09 00:45:18;;;;;;;2.70;0.90;;;;;;;;;;7358473;19;20275;-77
2023/03/09 00:47:43;;;;;;;3.25;1.10;;;;;;;;;;7365804;19;20142;-77
2023/03/09 00:50:09;;;;;;;5.17;1.30;;;;;;;;;;7369918;19;20037;-77
2023/03/09 00:52:34;;;;;;;2.90;0.90;;;;;;;;;;7360263;19;20290;-76
2023/03/09 00:54:59;;;;;;;4.05;1.33;;;;;;;;;;7365391;19;20824;-76
2023/03/09 00:57:24;;;;;;;12.43;1.63;;;;;;;;;;7369416;19;20612;-76
2023/03/09 00:59:51;;;;;;;5.05;0.95;;;;;;;;;;7365332;19;20011;-75
2023/03/09 01:02:17;;;;;;;3.95;1.08;;;;;;;;;;7373595;19;20014;-76
2023/03/09 01:04:42;;;;;;;2.95;1.00;;;;;;;;;;7364248;19;20010;-75
2023/03/09 01:07:07;;;;;;;12.98;1.20;;;;;;;;;;7336064;19;20672;-75
2023/03/09 01:09:32;;;;;;;3.05;1.00;;;;;;;;;;7365044;19;20086;-77
2023/03/09 01:11:57;;;;;;;72.55;5.22;;;;;;;;;;7362795;19;20307;-77
2023/03/09 01:14:23;;;;;;;3.08;0.90;;;;;;;;;;7358605;19;20291;-78
2023/03/09 01:16:48;;;;;;;4.33;1.00;;;;;;;;;;7366734;19;20014;-76
2023/03/09 01:19:13;;;;;;;2.45;0.80;;;;;;;;;;7366019;19;20267;-77
2023/03/09 01:21:38;;;;;;;3.28;0.98;;;;;;;;;;7357740;19;20018;-76
2023/03/09 01:24:04;;;;;;;2.38;0.80;;;;;;;;;;7363289;19;20010;-76
2023/03/09 01:26:29;;;;;;;3.83;0.77;;;;;;;;;;7364319;19;20762;-77
2023/03/09 01:28:54;;;;;;;2.15;0.80;;;;;;;;;;7360672;19;20011;-76
2023/03/09 01:31:19;;;;;;;2.30;0.75;;;;;;;;;;7358125;19;20006;-76
2023/03/09 01:33:46;;;;;;;2.17;0.73;;;;;;;;;;7358918;19;20324;-76
2023/03/09 01:36:13;;;;;;;3.58;0.82;;;;;;;;;;7361617;19;20325;-77
2023/03/09 01:38:38;;;;;;;2.38;1.20;;;;;;;;;;7361476;19;20070;-77
2023/03/09 01:41:03;;;;;;;4.93;0.80;;;;;;;;;;7369966;19;20014;-77
2023/03/09 01:43:34;;;;;;;2.75;0.93;;;;;;;;;;7363106;19;20067;-77
2023/03/09 01:46:18;;;;;;;3.40;1.10;;;;;;;;;;7367394;19;20476;-78
2023/03/09 01:48:43;;;;;;;5.18;1.23;;;;;;;;;;7366292;19;20243;-76
2023/03/09 01:51:08;;;;;;;3.75;1.30;;;;;;;;;;7362560;19;20337;-79
2023/03/09 01:53:34;;;;;;;3.88;1.30;;;;;;;;;;7359624;19;20038;-78
2023/03/09 01:56:00;;;;;;;4.03;1.30;;;;;;;;;;7369786;19;20120;-76
2023/03/09 01:58:27;;;;;;;5.88;1.52;;;;;;;;;;7367013;19;20475;-77
2023/03/09 02:00:53;;;;;;;4.13;1.45;;;;;;;;;;7365753;19;20087;-77
2023/03/09 02:03:21;;;;;;;6.22;1.75;;;;;;;;;;7360549;19;20359;-77
2023/03/09 02:05:49;;;;;;;6.95;2.47;;;;;;;;;;7356866;19;20023;-78
2023/03/09 02:08:15;;;;;;;7.70;2.30;;;;;;;;;;7284879;19;20018;-79
2023/03/09 02:10:46;;;;;;;6.38;2.28;;;;;;;;;;7279973;19;20134;-77
2023/03/09 02:13:16;;;;;;;7.97;2.33;;;;;;;;;;7285716;19;20014;-77
2023/03/09 02:15:41;;;;;;;9.57;2.42;;;;;;;;;;7286747;19;20500;-78
2023/03/09 02:18:07;;;;;;;7.13;2.42;;;;;;;;;;7290208;19;20412;-78
2023/03/09 02:20:48;;;;;;;6.40;2.50;;;;;;;;;;7290260;19;20793;-78
2023/03/09 02:23:18;;;;;;;8.75;2.58;;;;;;;;;;7286884;19;20039;-80
2023/03/09 02:25:53;;;;;;;8.15;2.83;;;;;;;;;;7283511;19;20007;-79
2023/03/09 02:28:18;;;;;;;10.85;2.58;;;;;;;;;;7283365;19;20122;-78
2023/03/09 02:30:44;;;;;;;14.13;2.92;;;;;;;;;;7292161;19;20467;-77
2023/03/09 02:33:12;;;;;;;7.38;2.60;;;;;;;;;;7292806;19;20420;-79
2023/03/09 02:35:37;;;;;;;9.93;3.53;;;;;;;;;;7282966;19;20367;-78
2023/03/09 02:38:02;;;;;;;6.82;2.67;;;;;;;;;;7287687;19;20023;-77
2023/03/09 02:40:29;;;;;;;11.20;2.42;;;;;;;;;;7283002;19;20272;-78
2023/03/09 02:42:56;;;;;;;10.75;2.60;;;;;;;;;;7281836;19;20774;-77
2023/03/09 02:45:21;;;;;;;9.43;2.45;;;;;;;;;;7294861;19;20010;-78
2023/03/09 02:47:47;;;;;;;9.15;2.47;;;;;;;;;;7275963;19;20383;-79
2023/03/09 02:50:12;;;;;;;8.45;2.45;;;;;;;;;;7279689;19;20444;-79
2023/03/09 02:52:37;;;;;;;15.85;2.92;;;;;;;;;;7283602;19;20258;-78
2023/03/09 02:55:03;;;;;;;9.23;2.58;;;;;;;;;;7279085;19;20133;-78
2023/03/09 02:57:28;;;;;;;8.27;1.98;;;;;;;;;;7281539;19;20454;-77
2023/03/09 02:59:53;;;;;;;6.95;2.00;;;;;;;;;;7294188;19;20471;-78
2023/03/09 03:02:19;;;;;;;6.22;2.03;;;;;;;;;;7280395;19;20010;-79
2023/03/09 03:04:44;;;;;;;17.60;2.10;;;;;;;;;;7275884;19;20033;-80
2023/03/09 03:07:09;;;;;;;6.07;1.80;;;;;;;;;;7332668;19;20086;-77
2023/03/09 03:09:34;;;;;;;9.68;2.22;;;;;;;;;;7365636;19;20014;-77
2023/03/09 03:11:59;;;;;;;10.68;2.05;;;;;;;;;;7370760;19;20492;-78
2023/03/09 03:14:25;;;;;;;6.25;2.00;;;;;;;;;;7369465;19;20314;-77
2023/03/09 03:16:50;;;;;;;8.90;1.88;;;;;;;;;;7371306;19;20031;-77
2023/03/09 03:19:15;;;;;;;9.90;1.90;;;;;;;;;;7374729;19;20106;-77
2023/03/09 03:21:40;;;;;;;6.78;1.90;;;;;;;;;;7369716;19;20267;-77
2023/03/09 03:24:06;;;;;;;12.73;1.70;;;;;;;;;;7381158;19;20119;-77
2023/03/09 03:26:31;;;;;;;7.25;2.03;;;;;;;;;;7377716;19;20384;-76
2023/03/09 03:28:56;;;;;;;7.13;1.70;;;;;;;;;;7370487;19;20510;-79
2023/03/09 03:31:21;;;;;;;14.48;2.20;;;;;;;;;;7375706;19;20104;-77
2023/03/09 03:33:47;;;;;;;13.77;1.85;;;;;;;;;;7375282;19;20107;-77
2023/03/09 03:36:12;;;;;;;13.32;3.53;;;;;;;;;;7365917;19;20010;-77
2023/03/09 03:38:37;;;;;;;10.07;1.88;;;;;;;;;;7373459;19;20338;-77
2023/03/09 03:41:03;;;;;;;13.37;2.30;;;;;;;;;;7375553;19;20300;-78
2023/03/09 03:43:28;;;;;;;22.40;2.75;;;;;;;;;;7373040;19;20280;-78
2023/03/09 03:45:53;;;;;;;20.30;3.13;;;;;;;;;;7355265;19;20410;-78
2023/03/09 03:48:18;;;;;;;19.03;3.20;;;;;;;;;;7377771;19;20255;-77
2023/03/09 03:50:43;;;;;;;27.77;3.50;;;;;;;;;;7369408;19;20816;-79
2023/03/09 03:53:09;;;;;;;17.83;2.90;;;;;;;;;;7367908;19;20272;-77
2023/03/09 03:55:34;;;;;;;23.80;3.20;;;;;;;;;;7358073;19;20032;-78
2023/03/09 03:57:59;;;;;;;27.67;4.75;;;;;;;;;;7372265;19;20256;-77
2023/03/09 04:00:24;;;;;;;25.57;3.77;;;;;;;;;;7373544;19;20010;-77
2023/03/09 04:02:49;;;;;;;32.55;3.58;;;;;;;;;;7355212;19;20565;-77
2023/03/09 04:05:15;;;;;;;29.85;4.53;;;;;;;;;;7370223;19;20036;-77
2023/03/09 04:07:40;;;;;;;28.45;3.90;;;;;;;;;;7361319;19;20002;-76
2023/03/09 04:10:05;;;;;;;34.08;4.53;;;;;;;;;;7374868;19;20014;-76
2023/03/09 04:12:30;;;;;;;27.63;3.70;;;;;;;;;;7370103;19;20082;-77
2023/03/09 04:14:56;;;;;;;36.97;4.15;;;;;;;;;;7374545;19;20032;-76
2023/03/09 04:17:21;;;;;;;28.27;4.25;;;;;;;;;;7371803;19;20098;-76
2023/03/09 04:19:46;;;;;;;31.88;3.72;;;;;;;;;;7371896;19;20286;-76
2023/03/09 04:22:11;;;;;;;22.10;4.20;;;;;;;;;;7370248;19;20113;-78
2023/03/09 04:24:37;;;;;;;27.00;3.40;;;;;;;;;;7372813;19;20290;-78
2023/03/09 04:27:02;;;;;;;18.02;2.22;;;;;;;;;;7371348;19;20018;-77
2023/03/09 04:29:27;;;;;;;16.08;3.00;;;;;;;;;;7373664;19;20010;-77
2023/03/09 04:31:52;;;;;;;16.63;2.20;;;;;;;;;;7365863;19;20511;-76
2023/03/09 04:34:17;;;;;;;15.93;2.90;;;;;;;;;;7373681;19;20267;-78
2023/03/09 04:36:42;;;;;;;19.67;2.17;;;;;;;;;;7364128;19;20276;-77
2023/03/09 04:39:08;;;;;;;15.73;2.58;;;;;;;;;;7376342;19;20030;-77
2023/03/09 04:41:33;;;;;;;19.02;2.95;;;;;;;;;;7373660;19;20018;-78
2023/03/09 04:43:58;;;;;;;19.90;2.38;;;;;;;;;;7373781;19;20509;-77
2023/03/09 04:46:23;;;;;;;22.47;3.07;;;;;;;;;;7373845;19;20066;-76
2023/03/09 04:48:48;;;;;;;25.95;2.70;;;;;;;;;;7365567;19;20264;-76
2023/03/09 04:51:14;;;;;;;23.40;2.20;;;;;;;;;;7362222;19;20263;-78
2023/03/09 04:53:39;;;;;;;12.20;2.70;;;;;;;;;;7367882;19;20007;-76
2023/03/09 04:56:04;;;;;;;21.30;3.05;;;;;;;;;;7370697;19;20313;-77
2023/03/09 04:58:29;;;;;;;34.30;3.67;;;;;;;;;;7371289;19;20035;-77
2023/03/09 05:00:54;;;;;;;24.90;2.88;;;;;;;;;;7366699;19;20021;-77
2023/03/09 05:03:19;;;;;;;17.33;3.22;;;;;;;;;;7369582;19;20790;-78
2023/03/09 05:05:45;;;;;;;19.13;3.23;;;;;;;;;;7359791;19;20283;-78
2023/03/09 05:08:10;;;;;;;14.43;3.03;;;;;;;;;;7364328;19;20370;-76
2023/03/09 05:10:35;;;;;;;17.30;2.78;;;;;;;;;;7365660;19;20010;-78
2023/03/09 05:13:00;;;;;;;24.80;3.95;;;;;;;;;;7368903;19;20010;-77
2023/03/09 05:15:26;;;;;;;15.93;3.28;;;;;;;;;;7369950;19;20013;-77
2023/03/09 05:17:51;;;;;;;22.07;3.57;;;;;;;;;;7369619;19;21020;-76
2023/03/09 05:20:16;;;;;;;20.43;3.50;;;;;;;;;;7370494;19;20290;-77
2023/03/09 05:22:42;;;;;;;13.65;4.15;;;;;;;;;;7363763;19;20272;-77
2023/03/09 05:25:07;;;;;;;21.23;3.67;;;;;;;;;;7345685;19;20343;-76
2023/03/09 05:27:32;;;;;;;7.85;2.90;;;;;;;;;;7365888;19;20043;-79
2023/03/09 05:29:58;;;;;;;20.00;3.45;;;;;;;;;;7368879;19;20070;-77
2023/03/09 05:32:23;;;;;;;16.38;3.28;;;;;;;;;;7369794;19;20030;-78
2023/03/09 05:34:48;;;;;;;14.38;3.00;;;;;;;;;;7369533;19;20017;-78
2023/03/09 05:37:13;;;;;;;9.68;3.10;;;;;;;;;;7371693;19;20021;-78
2023/03/09 05:39:38;;;;;;;9.45;2.35;;;;;;;;;;7371274;19;20334;-77
2023/03/09 05:42:04;;;;;;;9.32;2.42;;;;;;;;;;7375757;19;20256;-77
2023/03/09 05:44:29;;;;;;;12.18;3.00;;;;;;;;;;7367147;19;20455;-77
2023/03/09 05:46:54;;;;;;;6.97;2.20;;;;;;;;;;7371750;19;20013;-77
2023/03/09 05:49:19;;;;;;;9.18;2.47;;;;;;;;;;7376927;19;20000;-77
2023/03/09 05:51:44;;;;;;;11.90;1.92;;;;;;;;;;7364918;19;20074;-76
2023/03/09 05:54:09;;;;;;;7.73;1.73;;;;;;;;;;7371870;19;19999;-78
2023/03/09 05:56:35;;;;;;;9.10;2.30;;;;;;;;;;7364331;19;20276;-78
2023/03/09 05:59:00;;;;;;;9.93;2.53;;;;;;;;;;7368810;19;20762;-78
2023/03/09 06:01:26;;;;;;;11.48;2.30;;;;;;;;;;7374364;19;20279;-77
2023/03/09 06:03:52;;;;;;;8.98;2.00;;;;;;;;;;7367454;19;20041;-76
2023/03/09 06:06:17;;;;;;;8.70;2.20;;;;;;;;;;7355435;19;20003;-77
2023/03/09 06:08:42;;;;;;;13.60;2.58;;;;;;;;;;7349547;19;20015;-77
2023/03/09 06:11:08;;;;;;;6.18;2.03;;;;;;;;;;7373319;19;20120;-79
2023/03/09 06:13:33;;;;;;;9.93;2.25;;;;;;;;;;7363279;19;20018;-78
2023/03/09 06:16:01;;;;;;;8.65;2.22;;;;;;;;;;7355643;19;19998;-76
2023/03/09 06:18:26;;;;;;;10.52;2.47;;;;;;;;;;7354690;19;20035;-76
2023/03/09 06:20:51;;;;;;;6.25;2.20;;;;;;;;;;7363168;19;20006;-76
2023/03/09 06:23:16;;;;;;;11.33;2.43;;;;;;;;;;7374531;19;20443;-76
2023/03/09 06:25:42;;;;;;;8.82;2.50;;;;;;;;;;7367708;19;20362;-76
2023/03/09 06:28:08;;;;;;;12.07;3.17;;;;;;;;;;7374525;19;20007;-76
2023/03/09 06:30:33;;;;;;;9.88;2.67;;;;;;;;;;7370739;19;19999;-77
2023/03/09 06:32:58;;;;;;;8.27;2.60;;;;;;;;;;7373356;19;20006;-76
2023/03/09 06:35:24;;;;;;;12.60;2.73;;;;;;;;;;7369152;19;20044;-76
2023/03/09 06:37:49;;;;;;;9.88;2.50;;;;;;;;;;7356363;19;20573;-79
2023/03/09 06:40:14;;;;;;;10.75;2.97;;;;;;;;;;7376429;19;20102;-78
2023/03/09 06:42:40;;;;;;;7.03;2.25;;;;;;;;;;7374972;19;20018;-78
2023/03/09 06:45:05;;;;;;;8.00;2.58;;;;;;;;;;7371931;19;20299;-77
2023/03/09 06:47:31;;;;;;;10.85;2.83;;;;;;;;;;7377099;19;20523;-77
2023/03/09 06:49:56;;;;;;;10.63;2.67;;;;;;;;;;7371802;19;20007;-77
2023/03/09 06:52:21;;;;;;;6.13;2.37;;;;;;;;;;7381194;19;20019;-77
2023/03/09 06:54:47;;;;;;;7.73;2.47;;;;;;;;;;7391308;19;20274;-77
2023/03/09 06:57:12;;;;;;;6.88;2.35;;;;;;;;;;7389545;19;20295;-76
2023/03/09 06:59:37;;;;;;;7.28;2.47;;;;;;;;;;7369049;19;20034;-77
2023/03/09 07:02:02;;;;;;;8.38;2.25;;;;;;;;;;7388278;19;20279;-76
2023/03/09 07:04:28;;;;;;;8.23;2.53;;;;;;;;;;7387948;19;20035;-78
2023/03/09 07:06:53;;;;;;;5.83;2.20;;;;;;;;;;7385955;19;20303;-76
2023/03/09 07:09:18;;;;;;;7.43;2.75;;;;;;;;;;7387685;19;20290;-77
2023/03/09 07:11:43;;;;;;;11.98;2.65;;;;;;;;;;7379175;19;20002;-77
2023/03/09 07:14:08;;;;;;;5.87;2.07;;;;;;;;;;7387414;19;20058;-77
2023/03/09 07:16:34;;;;;;;5.85;2.25;;;;;;;;;;7389797;19;20740;-77
2023/03/09 07:18:59;;;;;;;6.53;2.40;;;;;;;;;;7385292;19;20015;-77
2023/03/09 07:21:24;;;;;;;7.55;2.30;;;;;;;;;;7387437;19;20044;-78
2023/03/09 07:23:49;;;;;;;9.75;2.38;;;;;;;;;;7383995;19;20003;-78
2023/03/09 07:26:14;;;;;;;10.38;2.58;;;;;;;;;;7376345;19;20079;-76
2023/03/09 07:28:39;;;;;;;7.88;2.53;;;;;;;;;;7380413;19;20378;-77
2023/03/09 07:31:06;;;;;;;10.57;2.60;;;;;;;;;;7377111;19;20297;-77
2023/03/09 07:33:31;;;;;;;9.25;2.85;;;;;;;;;;7387687;19;20464;-78
2023/03/09 07:35:56;;;;;;;11.50;2.42;;;;;;;;;;7366422;19;20022;-76
2023/03/09 07:38:21;;;;;;;5.60;2.47;;;;;;;;;;7378881;19;20721;-76
2023/03/09 07:40:46;;;;;;;13.43;2.70;;;;;;;;;;7384913;19;20011;-77
2023/03/09 07:43:12;;;;;;;10.52;2.25;;;;;;;;;;7389544;19;20290;-77
2023/03/09 07:45:37;;;;;;;10.30;2.50;;;;;;;;;;7384100;19;20343;-77
2023/03/09 07:48:03;;;;;;;9.20;2.20;;;;;;;;;;7385992;19;20414;-77
2023/03/09 07:50:28;;;;;;;7.72;2.42;;;;;;;;;;7388870;19;20010;-77
2023/03/09 07:52:54;;;;;;;7.38;2.15;;;;;;;;;;7383541;19;20087;-77
2023/03/09 07:55:22;;;;;;;9.55;2.10;;;;;;;;;;7388105;19;20014;-77
2023/03/09 07:57:47;;;;;;;15.20;2.90;;;;;;;;;;7386452;19;20035;-77
2023/03/09 08:00:13;;;;;;;6.57;2.10;;;;;;;;;;7387443;19;20058;-76
2023/03/09 08:02:41;;;;;;;8.77;2.17;;;;;;;;;;7385854;19;20391;-78
2023/03/09 08:05:08;;;;;;;7.32;1.88;;;;;;;;;;7371825;19;20014;-77
2023/03/09 08:07:33;;;;;;;6.80;1.80;;;;;;;;;;7364564;19;20025;-77
2023/03/09 08:09:58;;;;;;;4.60;1.60;;;;;;;;;;7379991;19;20006;-77
2023/03/09 08:12:23;;;;;;;8.20;2.20;;;;;;;;;;7376701;19;20263;-77
2023/03/09 08:14:48;;;;;;;5.90;1.83;;;;;;;;;;7375887;19;20323;-78
2023/03/09 08:17:14;;;;;;;7.72;1.90;;;;;;;;;;7377755;19;20283;-78
2023/03/09 08:19:39;;;;;;;8.80;2.67;;;;;;;;;;7379229;19;20411;-77
2023/03/09 08:22:04;;;;;;;9.25;1.70;;;;;;;;;;7375584;19;20021;-77
2023/03/09 08:24:30;;;;;;;6.87;2.30;;;;;;;;;;7382335;19;20014;-79
2023/03/09 08:26:55;;;;;;;6.38;1.90;;;;;;;;;;7379907;19;20885;-77
2023/03/09 08:29:20;;;;;;;6.18;2.10;;;;;;;;;;7379183;19;20007;-77
2023/03/09 08:31:46;;;;;;;6.78;1.65;;;;;;;;;;7376331;19;20015;-77
2023/03/09 08:34:11;;;;;;;6.40;1.90;;;;;;;;;;7380618;19;20455;-77
2023/03/09 08:36:36;;;;;;;9.90;1.95;;;;;;;;;;7371896;19;20275;-77
2023/03/09 08:39:01;;;;;;;10.87;1.93;;;;;;;;;;7376645;19;20006;-78
2023/03/09 08:41:26;;;;;;;5.55;1.77;;;;;;;;;;7380385;19;20275;-77
2023/03/09 08:43:51;;;;;;;8.60;1.70;;;;;;;;;;7376392;19;20078;-77
2023/03/09 08:46:17;;;;;;;7.13;1.80;;;;;;;;;;7380104;19;20019;-77
2023/03/09 08:48:42;;;;;;;9.63;1.80;;;;;;;;;;7379057;19;20087;-77
2023/03/09 08:51:09;;;;;;;5.60;1.63;;;;;;;;;;7376544;19;20059;-77
2023/03/09 08:53:34;;;;;;;8.43;1.65;;;;;;;;;;7380633;19;20578;-77
2023/03/09 08:56:07;;;;;;;5.53;1.45;;;;;;;;;;7378548;19;20021;-77
2023/03/09 08:58:33;;;;;;;2.80;1.17;;;;;;;;;;7379861;19;20002;-76
2023/03/09 09:00:59;;;;;;;7.55;1.90;;;;;;;;;;7374912;19;20038;-76
2023/03/09 09:03:24;;;;;;;8.25;2.15;;;;;;;;;;7380343;19;20014;-76
2023/03/09 09:05:49;;;;;;;6.80;1.67;;;;;;;;;;7368764;19;20117;-77
2023/03/09 09:08:15;;;;;;;5.82;1.50;;;;;;;;;;7380070;19;20267;-78
2023/03/09 09:10:42;;;;;;;8.55;1.90;;;;;;;;;;7375460;19;20330;-77
2023/03/09 09:13:07;;;;;;;6.25;1.45;;;;;;;;;;7373229;19;20937;-78
2023/03/09 09:15:33;;;;;;;7.68;1.77;;;;;;;;;;7374225;19;20010;-79
2023/03/09 09:17:58;;;;;;;5.75;1.30;;;;;;;;;;7375313;19;20035;-77
2023/03/09 09:20:23;;;;;;;6.47;1.97;;;;;;;;;;7378630;19;20131;-78
2023/03/09 09:22:48;;;;;;;9.30;1.43;;;;;;;;;;7374700;19;20275;-77
2023/03/09 09:25:14;;;;;;;7.55;1.60;;;;;;;;;;7380879;19;20275;-77
2023/03/09 09:27:39;;;;;;;7.00;1.65;;;;;;;;;;7376669;19;20059;-78
2023/03/09 09:30:05;;;;;;;11.45;2.20;;;;;;;;;;7374163;19;20010;-77
2023/03/09 09:32:30;;;;;;;10.13;2.47;;;;;;;;;;7379540;19;20409;-76
2023/03/09 09:34:57;;;;;;;9.35;1.88;;;;;;;;;;7374007;19;20026;-79
2023/03/09 09:37:22;;;;;;;7.13;1.85;;;;;;;;;;7372692;19;20271;-79
2023/03/09 09:39:48;;;;;;;8.67;1.90;;;;;;;;;;7378050;19;20019;-77
2023/03/09 09:42:21;;;;;;;9.18;1.80;;;;;;;;;;7379583;19;20701;-77
2023/03/09 09:44:48;;;;;;;6.50;1.65;;;;;;;;;;7374728;19;20142;-77
2023/03/09 09:47:16;;;;;;;8.48;1.88;;;;;;;;;;7379096;19;20018;-77
2023/03/09 09:49:43;;;;;;;7.90;1.83;;;;;;;;;;7380134;19;20006;-77
2023/03/09 09:52:27;;;;;;;13.02;1.95;;;;;;;;;;7371728;19;20043;-77
2023/03/09 09:55:06;;;;;;;10.05;1.50;;;;;;;;;;7377174;19;20015;-78
2023/03/09 09:57:49;;;;;;;8.60;2.38;;;;;;;;;;7375997;19;20025;-77
2023/03/09 10:00:19;;;;;;;10.82;2.20;;;;;;;;;;7378127;19;20387;-77
2023/03/09 10:02:56;;;;;;;10.73;1.90;;;;;;;;;;7375092;19;20559;-77
2023/03/09 10:05:25;;;;;;;11.73;2.00;;;;;;;;;;7373684;19;20010;-77
2023/03/09 10:07:51;;;;;;;10.15;2.15;;;;;;;;;;7374879;19;20398;-78
2023/03/09 10:10:20;;;;;;;11.73;2.65;;;;;;;;;;7377504;19;20126;-77
2023/03/09 10:12:46;;;;;;;9.15;1.83;;;;;;;;;;7379153;19;20026;-78
2023/03/09 10:15:11;;;;;;;9.07;1.90;;;;;;;;;;7370015;19;20302;-77
2023/03/09 10:17:42;;;;;;;6.93;2.05;;;;;;;;;;7377874;19;20011;-78
2023/03/09 10:20:14;;;;;;;6.97;2.22;;;;;;;;;;7374601;19;20035;-78
2023/03/09 10:22:40;;;;;;;7.47;2.00;;;;;;;;;;7372402;19;20685;-77
2023/03/09 10:25:13;;;;;;;11.80;2.58;;;;;;;;;;7376641;19;20034;-78
2023/03/09 10:27:40;;;;;;;10.10;1.73;;;;;;;;;;7374579;19;20022;-78
2023/03/09 10:30:13;;;;;;;9.05;2.33;;;;;;;;;;7376484;19;20010;-78
2023/03/09 10:32:54;;;;;;;8.68;1.95;;;;;;;;;;7376736;19;20330;-78
2023/03/09 10:35:19;;;;;;;7.38;1.88;;;;;;;;;;7376847;19;20014;-78
2023/03/09 10:37:46;;;;;;;6.97;2.03;;;;;;;;;;7375428;19;20470;-77
2023/03/09 10:40:25;;;;;;;10.45;3.38;;;;;;;;;;7374162;19;20013;-76
2023/03/09 10:42:51;;;;;;;8.48;2.08;;;;;;;;;;7377824;19;20014;-76
2023/03/09 10:45:16;;;;;;;12.07;1.83;;;;;;;;;;7374671;19;20364;-76
2023/03/09 10:47:50;;;;;;;8.38;2.10;;;;;;;;;;7377730;19;20010;-78
2023/03/09 10:50:16;;;;;;;7.50;1.75;;;;;;;;;;7374909;19;20039;-78
2023/03/09 10:52:41;;;;;;;8.05;1.65;;;;;;;;;;7373322;19;20324;-77
2023/03/09 10:55:25;;;;;;;8.17;1.77;;;;;;;;;;7371534;19;20074;-76
2023/03/09 10:57:50;;;;;;;;;;;;;;;;;;7378662;19;20799;-77
2023/03/09 11:00:16;;;;;;;7.22;1.80;;;;;;;;;;7372724;19;20364;-78
2023/03/09 11:02:49;;;;;;;6.82;1.63;;;;;;;;;;7374626;19;20246;-77
2023/03/09 11:05:15;;;;;;;;;;;;;;;;;;7374163;19;20074;-77
2023/03/09 11:07:40;;;;;;;14.20;2.55;;;;;;;;;;7374936;19;19961;-77
2023/03/09 11:10:20;;;;;;;16.53;3.80;;;;;;;;;;7374374;19;20010;-77
2023/03/09 11:12:46;;;;;;;15.27;2.58;;;;;;;;;;7374583;19;20270;-76
2023/03/09 11:15:15;;;;;;;15.98;3.17;;;;;;;;;;7363591;19;20050;-78
2023/03/09 11:17:42;;;;;;;24.40;3.72;;;;;;;;;;7374208;19;20042;-77
2023/03/09 11:20:20;;;;;;;19.27;3.83;;;;;;;;;;7353789;19;20022;-77
2023/03/09 11:23:00;;;;;;;16.63;3.42;;;;;;;;;;7372482;19;20010;-77
2023/03/09 11:25:41;;;;;;;18.58;3.10;;;;;;;;;;7375842;19;20014;-78
2023/03/09 11:28:16;;;;;;;15.02;2.70;;;;;;;;;;7370549;19;20018;-79
2023/03/09 11:30:42;;;;;;;17.23;3.20;;;;;;;;;;7369241;19;20122;-79
2023/03/09 11:33:09;;;;;;;15.02;2.72;;;;;;;;;;7372710;19;20133;-77
2023/03/09 11:35:34;;;;;;;17.48;3.05;;;;;;;;;;7370827;19;20014;-79
2023/03/09 11:38:06;;;;;;;20.35;3.42;;;;;;;;;;7363496;19;20112;-79
2023/03/09 11:40:33;;;;;;;19.85;3.42;;;;;;;;;;7374576;19;20079;-78
2023/03/09 11:43:00;;;;;;;21.33;3.40;;;;;;;;;;7382565;19;20287;-77
2023/03/09 11:45:29;;;;;;;17.10;3.50;;;;;;;;;;7382023;19;20018;-76
2023/03/09 11:48:05;;;;;;;19.52;3.53;;;;;;;;;;7377442;19;20074;-79
2023/03/09 11:50:35;;;;;;;19.83;3.53;;;;;;;;;;7374747;19;20011;-76
2023/03/09 11:53:03;;;;;;;21.98;4.18;;;;;;;;;;7371014;19;20034;-77
2023/03/09 11:55:35;;;;;;;20.83;2.97;;;;;;;;;;7384142;19;20014;-77
2023/03/09 11:58:02;;;;;;;27.58;4.35;;;;;;;;;;7380553;19;20006;-78
2023/03/09 12:00:29;;;;;;;19.58;3.92;;;;;;;;;;7385966;19;20324;-77
2023/03/09 12:03:09;;;;;;;16.80;2.85;;;;;;;;;;7378843;19;20011;-78
2023/03/09 12:05:37;;;;;;;18.60;3.00;;;;;;;;;;7378206;19;20021;-77
2023/03/09 12:08:23;;;;;;;18.67;3.58;;;;;;;;;;7373025;19;20103;-79
2023/03/09 12:11:00;;;;;;;22.35;3.78;;;;;;;;;;7377919;19;20365;-76
2023/03/09 12:13:27;;;;;;;18.33;3.60;;;;;;;;;;7377210;19;20091;-76
2023/03/09 12:16:00;;;;;;;26.35;3.75;;;;;;;;;;7380411;19;20131;-76
2023/03/09 12:18:33;;;;;;;21.03;2.77;;;;;;;;;;7377758;19;20466;-77
2023/03/09 12:21:00;;;;;;;13.57;3.27;;;;;;;;;;7361398;19;20010;-79
2023/03/09 12:23:34;;;;;;;16.88;2.95;;;;;;;;;;7381721;19;20434;-77
2023/03/09 12:26:00;;;;;;;19.70;2.75;;;;;;;;;;7369080;19;20670;-77
2023/03/09 12:28:26;;;;;;;13.88;2.85;;;;;;;;;;7368524;19;20021;-78
2023/03/09 12:30:53;;;;;;;16.17;2.20;;;;;;;;;;7371939;19;20006;-77
2023/03/09 12:33:37;;;;;;;15.27;2.50;;;;;;;;;;7355216;19;20014;-78
2023/03/09 12:36:02;;;;;;;15.60;3.70;;;;;;;;;;7362643;19;20846;-78
2023/03/09 12:38:27;;;;;;;10.75;1.83;;;;;;;;;;7383455;19;20878;-76
2023/03/09 12:40:54;;;;;;;15.88;2.88;;;;;;;;;;7368351;19;20006;-77
2023/03/09 12:43:19;;;;;;;10.10;1.77;;;;;;;;;;7383854;19;20018;-77
2023/03/09 12:45:45;;;;;;;9.57;1.63;;;;;;;;;;7379563;19;20836;-77
2023/03/09 12:48:14;;;;;;;9.48;1.60;;;;;;;;;;7378805;19;20021;-78
2023/03/09 12:50:42;;;;;;;6.18;1.40;;;;;;;;;;7383106;19;20041;-77
2023/03/09 12:53:12;;;;;;;6.95;1.85;;;;;;;;;;7378268;19;20289;-78
2023/03/09 12:55:37;;;;;;;8.25;1.90;;;;;;;;;;7383877;19;20026;-77
2023/03/09 12:58:17;;;;;;;9.30;2.00;;;;;;;;;;7381097;19;20410;-77
2023/03/09 13:00:53;;;;;;;13.25;2.13;;;;;;;;;;7384055;19;20011;-77
2023/03/09 13:03:22;;;;;;;13.45;3.05;;;;;;;;;;7378928;19;20443;-77
2023/03/09 13:05:48;;;;;;;25.92;3.67;;;;;;;;;;7374328;19;20010;-77
2023/03/09 13:08:22;;;;;;;17.75;2.72;;;;;;;;;;7371722;19;20146;-77
2023/03/09 13:10:48;;;;;;;12.15;2.42;;;;;;;;;;7364538;19;20414;-79
2023/03/09 13:13:32;;;;;;;18.02;3.40;;;;;;;;;;7362139;19;20018;-79
2023/03/09 13:16:15;;;;;;;12.35;3.28;;;;;;;;;;7380455;19;20597;-78
2023/03/09 13:18:40;;;;;;;17.40;3.72;;;;;;;;;;7380589;19;20027;-78
2023/03/09 13:21:25;;;;;;;22.67;4.07;;;;;;;;;;7369454;19;20002;-80
2023/03/09 13:23:50;;;;;;;20.17;3.92;;;;;;;;;;7361508;19;20279;-78
2023/03/09 13:26:16;;;;;;;21.50;3.78;;;;;;;;;;7371490;19;20082;-78
2023/03/09 13:28:46;;;;;;;20.30;3.58;;;;;;;;;;7380630;19;20078;-77
2023/03/09 13:31:20;;;;;;;15.18;3.17;;;;;;;;;;7370609;19;20330;-78
2023/03/09 13:33:45;;;;;;;;;;;;;;;;;;7383335;19;20369;-77
2023/03/09 13:36:14;;;;;;;24.45;3.78;;;;;;;;;;7372799;19;19929;-77
2023/03/09 13:38:43;;;;;;;19.85;3.53;;;;;;;;;;7382201;19;20099;-79
2023/03/09 13:41:15;;;;;;;25.73;3.70;;;;;;;;;;7376260;19;20046;-78
2023/03/09 13:43:45;;;;;;;21.83;3.15;;;;;;;;;;7382435;19;20014;-77
2023/03/09 13:46:20;;;;;;;27.40;4.10;;;;;;;;;;7378190;19;20010;-77
2023/03/09 13:48:46;;;;;;;21.05;3.85;;;;;;;;;;7375898;19;20003;-78
2023/03/09 13:51:25;;;;;;;18.77;3.72;;;;;;;;;;7376012;19;20006;-77
2023/03/09 13:53:50;;;;;;;29.30;4.63;;;;;;;;;;7370141;19;20448;-77
2023/03/09 13:56:15;;;;;;;21.08;3.70;;;;;;;;;;7377883;19;20132;-78
2023/03/09 13:58:42;;;;;;;21.27;4.18;;;;;;;;;;7380957;19;20496;-79
2023/03/09 14:01:17;;;;;;;31.52;3.80;;;;;;;;;;7378236;19;20138;-76
2023/03/09 14:03:46;;;;;;;25.42;4.70;;;;;;;;;;7375984;19;20437;-78
2023/03/09 14:06:11;;;;;;;24.40;3.70;;;;;;;;;;7366290;19;20070;-77
2023/03/09 14:08:42;;;;;;;24.17;4.27;;;;;;;;;;7382418;19;20009;-77
2023/03/09 14:11:10;;;;;;;21.20;3.88;;;;;;;;;;7376814;19;20558;-79
2023/03/09 14:13:35;;;;;;;25.25;3.90;;;;;;;;;;7379513;19;20340;-77
2023/03/09 14:16:05;;;;;;;25.42;4.80;;;;;;;;;;7381870;19;20094;-79
2023/03/09 14:18:42;;;;;;;21.58;3.60;;;;;;;;;;7377888;19;20114;-77
2023/03/09 14:21:27;;;;;;;19.65;3.78;;;;;;;;;;7365770;19;20418;-79
2023/03/09 14:23:53;;;;;;;22.25;4.18;;;;;;;;;;7380690;19;20022;-77
2023/03/09 14:26:23;;;;;;;24.60;3.88;;;;;;;;;;7377919;19;20515;-78
2023/03/09 14:29:03;;;;;;;32.78;3.72;;;;;;;;;;7373998;19;20136;-78
2023/03/09 14:31:29;;;;;;;29.15;4.05;;;;;;;;;;7379167;19;20029;-79
2023/03/09 14:33:55;;;;;;;30.17;4.13;;;;;;;;;;7380979;19;20602;-80
2023/03/09 14:36:21;;;;;;;25.25;4.20;;;;;;;;;;7371278;19;20113;-77
2023/03/09 14:39:10;;;;;;;24.58;4.60;;;;;;;;;;7380606;19;20032;-77